createdAt,value
2018-06-14T09:29:27.004Z,21.80
2018-06-14T09:31:55.490Z,21.90
2018-06-14T09:34:24.640Z,21.90
2018-06-14T09:36:53.290Z,21.90
2018-06-14T09:39:22.108Z,22.30
2018-06-14T09:41:50.715Z,21.90
2018-06-14T09:44:19.483Z,21.90
2018-06-14T09:46:48.014Z,21.80
2018-06-14T09:49:17.586Z,21.90
2018-06-14T09:51:48.335Z,21.80
2018-06-14T09:54:17.838Z,21.90
2018-06-14T09:56:46.445Z,21.80
2018-06-14T09:59:15.270Z,21.80
2018-06-14T10:01:44.578Z,21.80
2018-06-14T10:04:13.368Z,22.30
2018-06-14T10:09:12.290Z,21.50
2018-06-14T10:11:41.108Z,21.90
2018-06-14T10:14:10.550Z,22.00
2018-06-14T10:16:39.344Z,22.00
2018-06-14T10:19:07.848Z,22.00
2018-06-14T10:21:36.341Z,22.00
2018-06-14T10:24:04.872Z,22.00
2018-06-14T10:26:33.462Z,22.10
2018-06-14T10:29:02.061Z,22.10
2018-06-14T10:31:30.881Z,22.00
2018-06-14T10:33:59.380Z,22.00
2018-06-14T13:31:35.045Z,21.70
2018-06-14T13:34:03.502Z,21.80
2018-06-14T13:36:31.862Z,21.80
2018-06-14T13:39:00.398Z,21.80
2018-06-14T13:41:28.767Z,21.70
2018-06-14T13:44:01.176Z,21.70
2018-06-14T13:46:29.562Z,21.70
2018-06-14T13:48:57.981Z,21.70
2018-06-14T13:51:26.291Z,21.70
2018-06-14T13:53:54.627Z,21.70
2018-06-14T13:56:22.949Z,21.70
2018-06-14T13:58:51.288Z,21.70
2018-06-14T14:01:19.683Z,21.70
2018-06-14T14:03:48.044Z,21.70
2018-06-14T14:06:16.390Z,21.70
2018-06-14T14:08:44.804Z,21.70
2018-06-14T14:11:13.898Z,21.70
2018-06-14T14:13:42.331Z,21.70
2018-06-14T14:16:10.668Z,21.70
2018-06-14T14:18:39.671Z,21.60
2018-06-14T14:23:36.173Z,21.30
2018-06-14T14:26:04.622Z,21.30
2018-06-14T14:28:32.970Z,21.30
2018-06-14T14:31:01.325Z,21.30
2018-06-14T14:33:29.789Z,21.30
2018-06-14T14:35:58.145Z,21.40
2018-06-14T14:38:26.609Z,21.40
2018-06-14T14:40:54.962Z,21.50
2018-06-14T14:43:23.276Z,21.60
2018-06-14T14:45:51.651Z,21.60
2018-06-14T14:48:19.987Z,21.60
2018-06-14T14:50:48.382Z,21.60
2018-06-14T14:53:16.852Z,21.60
2018-06-14T14:55:45.503Z,21.60
2018-06-14T14:58:13.880Z,21.60
2018-06-14T15:00:42.271Z,21.60
2018-06-14T15:03:10.877Z,21.60
2018-06-14T15:05:39.400Z,21.70
2018-06-14T15:08:07.768Z,21.70
2018-06-14T15:10:36.136Z,21.70
2018-06-14T15:13:04.465Z,21.70
2018-06-14T15:15:33.110Z,21.70
2018-06-14T15:18:01.528Z,21.70
2018-06-14T15:20:29.927Z,21.70
2018-06-14T15:22:59.020Z,21.70
2018-06-14T15:25:27.382Z,21.70
2018-06-14T15:27:55.782Z,21.70
2018-06-14T15:30:24.244Z,21.70
2018-06-14T15:32:52.590Z,21.70
2018-06-14T15:37:49.226Z,21.80
2018-06-14T15:40:18.063Z,21.80
2018-06-14T15:42:46.472Z,21.80
2018-06-14T15:45:14.823Z,21.70
2018-06-14T15:47:43.168Z,21.70
2018-06-14T15:50:11.518Z,21.70
2018-06-14T15:55:19.306Z,21.80
2018-06-14T15:57:47.659Z,21.80
2018-06-14T16:00:16.113Z,21.80
2018-06-14T16:02:44.503Z,21.80
2018-06-14T16:05:16.504Z,21.80
2018-06-14T16:07:45.394Z,21.80
2018-06-14T16:10:14.059Z,21.80
